sensor_id;sensor_type;location;lat;lon;timestamp;P1;durP1;ratioP1;P2;durP2;ratioP2
3747;SDS011;1889;50.058;8.688;2023-06-26T00:01:30;6.77;;;6.17;;
3747;SDS011;1889;50.058;8.688;2023-06-26T00:03:59;7.40;;;6.00;;
3747;SDS011;1889;50.058;8.688;2023-06-26T00:06:29;7.83;;;6.37;;
3747;SDS011;1889;50.058;8.688;2023-06-26T00:08:58;7.00;;;6.30;;
3747;SDS011;1889;50.058;8.688;2023-06-26T00:11:28;6.47;;;5.80;;
3747;SDS011;1889;50.058;8.688;2023-06-26T00:13:59;7.07;;;6.30;;
3747;SDS011;1889;50.058;8.688;2023-06-26T00:16:29;6.53;;;6.03;;
3747;SDS011;1889;50.058;8.688;2023-06-26T00:18:58;6.80;;;6.20;;
3747;SDS011;1889;50.058;8.688;2023-06-26T00:21:28;7.37;;;6.67;;
3747;SDS011;1889;50.058;8.688;2023-06-26T00:23:57;7.00;;;6.40;;
3747;SDS011;1889;50.058;8.688;2023-06-26T00:26:26;7.30;;;6.47;;
3747;SDS011;1889;50.058;8.688;2023-06-26T00:28:55;7.67;;;6.97;;
3747;SDS011;1889;50.058;8.688;2023-06-26T00:31:24;7.30;;;6.60;;
3747;SDS011;1889;50.058;8.688;2023-06-26T00:33:53;6.93;;;6.33;;
3747;SDS011;1889;50.058;8.688;2023-06-26T00:36:22;7.50;;;6.80;;
3747;SDS011;1889;50.058;8.688;2023-06-26T00:38:52;6.80;;;6.30;;
3747;SDS011;1889;50.058;8.688;2023-06-26T00:41:21;7.73;;;7.03;;
3747;SDS011;1889;50.058;8.688;2023-06-26T00:43:50;7.50;;;6.80;;
3747;SDS011;1889;50.058;8.688;2023-06-26T00:46:19;6.43;;;5.93;;
3747;SDS011;1889;50.058;8.688;2023-06-26T00:48:48;7.40;;;6.63;;
3747;SDS011;1889;50.058;8.688;2023-06-26T00:51:18;7.67;;;6.83;;
3747;SDS011;1889;50.058;8.688;2023-06-26T00:53:47;6.90;;;6.20;;
3747;SDS011;1889;50.058;8.688;2023-06-26T00:56:17;8.40;;;6.57;;
3747;SDS011;1889;50.058;8.688;2023-06-26T00:58:47;7.67;;;6.87;;
3747;SDS011;1889;50.058;8.688;2023-06-26T01:01:16;7.33;;;6.63;;
3747;SDS011;1889;50.058;8.688;2023-06-26T01:03:49;7.20;;;6.37;;
3747;SDS011;1889;50.058;8.688;2023-06-26T01:06:20;7.47;;;6.77;;
3747;SDS011;1889;50.058;8.688;2023-06-26T01:08:51;7.53;;;6.80;;
3747;SDS011;1889;50.058;8.688;2023-06-26T01:11:20;7.70;;;6.67;;
3747;SDS011;1889;50.058;8.688;2023-06-26T01:13:49;7.90;;;7.20;;
3747;SDS011;1889;50.058;8.688;2023-06-26T01:16:21;9.27;;;7.33;;
3747;SDS011;1889;50.058;8.688;2023-06-26T01:18:52;7.87;;;7.13;;
3747;SDS011;1889;50.058;8.688;2023-06-26T01:21:22;7.57;;;6.87;;
3747;SDS011;1889;50.058;8.688;2023-06-26T01:24:12;7.77;;;7.10;;
3747;SDS011;1889;50.058;8.688;2023-06-26T01:26:37;7.97;;;7.17;;
3747;SDS011;1889;50.058;8.688;2023-06-26T01:29:10;7.93;;;7.23;;
3747;SDS011;1889;50.058;8.688;2023-06-26T01:31:41;7.93;;;7.20;;
3747;SDS011;1889;50.058;8.688;2023-06-26T01:34:14;9.30;;;7.80;;
3747;SDS011;1889;50.058;8.688;2023-06-26T01:36:45;8.50;;;7.57;;
3747;SDS011;1889;50.058;8.688;2023-06-26T01:39:15;11.13;;;7.50;;
3747;SDS011;1889;50.058;8.688;2023-06-26T01:41:46;7.93;;;7.23;;
3747;SDS011;1889;50.058;8.688;2023-06-26T01:44:39;8.43;;;7.40;;
3747;SDS011;1889;50.058;8.688;2023-06-26T01:47:05;8.27;;;7.33;;
3747;SDS011;1889;50.058;8.688;2023-06-26T01:49:44;7.97;;;7.17;;
3747;SDS011;1889;50.058;8.688;2023-06-26T01:52:20;8.40;;;6.97;;
3747;SDS011;1889;50.058;8.688;2023-06-26T01:57:35;8.57;;;7.60;;
3747;SDS011;1889;50.058;8.688;2023-06-26T02:00:08;8.20;;;7.40;;
3747;SDS011;1889;50.058;8.688;2023-06-26T02:02:41;8.07;;;7.27;;
3747;SDS011;1889;50.058;8.688;2023-06-26T02:05:11;7.50;;;6.80;;
3747;SDS011;1889;50.058;8.688;2023-06-26T02:07:41;8.23;;;7.43;;
3747;SDS011;1889;50.058;8.688;2023-06-26T02:10:11;8.47;;;7.67;;
3747;SDS011;1889;50.058;8.688;2023-06-26T02:12:40;9.37;;;7.93;;
3747;SDS011;1889;50.058;8.688;2023-06-26T02:15:09;8.40;;;7.60;;
3747;SDS011;1889;50.058;8.688;2023-06-26T02:17:39;8.70;;;7.93;;
3747;SDS011;1889;50.058;8.688;2023-06-26T02:20:15;7.90;;;7.10;;
3747;SDS011;1889;50.058;8.688;2023-06-26T02:22:44;8.00;;;7.23;;
3747;SDS011;1889;50.058;8.688;2023-06-26T02:25:14;7.70;;;7.00;;
3747;SDS011;1889;50.058;8.688;2023-06-26T02:27:43;7.80;;;7.10;;
3747;SDS011;1889;50.058;8.688;2023-06-26T02:30:12;8.27;;;7.47;;
3747;SDS011;1889;50.058;8.688;2023-06-26T02:32:41;8.20;;;7.37;;
3747;SDS011;1889;50.058;8.688;2023-06-26T02:35:10;8.00;;;7.20;;
3747;SDS011;1889;50.058;8.688;2023-06-26T02:37:39;8.50;;;7.70;;
3747;SDS011;1889;50.058;8.688;2023-06-26T02:40:10;7.83;;;7.13;;
3747;SDS011;1889;50.058;8.688;2023-06-26T02:42:58;9.00;;;7.30;;
3747;SDS011;1889;50.058;8.688;2023-06-26T02:45:27;8.97;;;7.67;;
3747;SDS011;1889;50.058;8.688;2023-06-26T02:47:56;7.83;;;7.13;;
3747;SDS011;1889;50.058;8.688;2023-06-26T02:50:25;7.43;;;6.73;;
3747;SDS011;1889;50.058;8.688;2023-06-26T02:52:54;8.30;;;7.47;;
3747;SDS011;1889;50.058;8.688;2023-06-26T02:55:23;8.07;;;7.37;;
3747;SDS011;1889;50.058;8.688;2023-06-26T02:57:52;8.57;;;7.70;;
3747;SDS011;1889;50.058;8.688;2023-06-26T03:00:21;9.50;;;7.83;;
3747;SDS011;1889;50.058;8.688;2023-06-26T03:02:51;11.13;;;7.70;;
3747;SDS011;1889;50.058;8.688;2023-06-26T03:05:20;8.40;;;7.60;;
3747;SDS011;1889;50.058;8.688;2023-06-26T03:07:50;7.90;;;7.10;;
3747;SDS011;1889;50.058;8.688;2023-06-26T03:10:19;8.53;;;7.60;;
3747;SDS011;1889;50.058;8.688;2023-06-26T03:12:48;8.43;;;7.40;;
3747;SDS011;1889;50.058;8.688;2023-06-26T03:15:17;9.60;;;8.23;;
3747;SDS011;1889;50.058;8.688;2023-06-26T03:17:46;9.53;;;7.93;;
3747;SDS011;1889;50.058;8.688;2023-06-26T03:20:15;8.60;;;7.80;;
3747;SDS011;1889;50.058;8.688;2023-06-26T03:22:44;8.03;;;7.23;;
3747;SDS011;1889;50.058;8.688;2023-06-26T03:25:13;9.20;;;7.87;;
3747;SDS011;1889;50.058;8.688;2023-06-26T03:27:43;9.10;;;8.30;;
3747;SDS011;1889;50.058;8.688;2023-06-26T03:30:12;8.10;;;7.20;;
3747;SDS011;1889;50.058;8.688;2023-06-26T03:32:41;8.13;;;7.40;;
3747;SDS011;1889;50.058;8.688;2023-06-26T03:35:10;8.97;;;7.93;;
3747;SDS011;1889;50.058;8.688;2023-06-26T03:37:39;8.23;;;7.50;;
3747;SDS011;1889;50.058;8.688;2023-06-26T03:40:08;9.07;;;8.10;;
3747;SDS011;1889;50.058;8.688;2023-06-26T03:42:38;8.10;;;7.40;;
3747;SDS011;1889;50.058;8.688;2023-06-26T03:45:07;8.40;;;7.60;;
3747;SDS011;1889;50.058;8.688;2023-06-26T03:47:36;8.67;;;7.87;;
3747;SDS011;1889;50.058;8.688;2023-06-26T03:50:05;8.50;;;7.70;;
3747;SDS011;1889;50.058;8.688;2023-06-26T03:52:34;9.40;;;8.00;;
3747;SDS011;1889;50.058;8.688;2023-06-26T03:55:03;8.63;;;7.87;;
3747;SDS011;1889;50.058;8.688;2023-06-26T03:57:32;9.47;;;8.47;;
3747;SDS011;1889;50.058;8.688;2023-06-26T04:00:02;10.23;;;8.17;;
3747;SDS011;1889;50.058;8.688;2023-06-26T04:02:38;8.37;;;7.57;;
3747;SDS011;1889;50.058;8.688;2023-06-26T04:05:07;9.57;;;8.53;;
3747;SDS011;1889;50.058;8.688;2023-06-26T04:07:37;9.33;;;8.50;;
3747;SDS011;1889;50.058;8.688;2023-06-26T04:10:06;8.50;;;7.80;;
3747;SDS011;1889;50.058;8.688;2023-06-26T04:12:35;8.97;;;8.17;;
3747;SDS011;1889;50.058;8.688;2023-06-26T04:15:05;9.67;;;8.77;;
3747;SDS011;1889;50.058;8.688;2023-06-26T04:17:34;10.70;;;7.60;;
3747;SDS011;1889;50.058;8.688;2023-06-26T04:20:04;8.30;;;7.00;;
3747;SDS011;1889;50.058;8.688;2023-06-26T04:22:34;9.00;;;8.03;;
3747;SDS011;1889;50.058;8.688;2023-06-26T04:25:03;8.37;;;7.23;;
3747;SDS011;1889;50.058;8.688;2023-06-26T04:27:34;8.53;;;7.70;;
3747;SDS011;1889;50.058;8.688;2023-06-26T04:30:03;9.13;;;8.13;;
3747;SDS011;1889;50.058;8.688;2023-06-26T04:32:32;9.60;;;7.70;;
3747;SDS011;1889;50.058;8.688;2023-06-26T04:35:01;8.80;;;7.90;;
3747;SDS011;1889;50.058;8.688;2023-06-26T04:37:30;8.93;;;8.00;;
3747;SDS011;1889;50.058;8.688;2023-06-26T04:39:59;9.50;;;8.40;;
3747;SDS011;1889;50.058;8.688;2023-06-26T04:42:28;8.97;;;8.10;;
3747;SDS011;1889;50.058;8.688;2023-06-26T04:44:57;10.07;;;8.57;;
3747;SDS011;1889;50.058;8.688;2023-06-26T04:47:26;9.77;;;7.90;;
3747;SDS011;1889;50.058;8.688;2023-06-26T04:49:55;8.47;;;7.57;;
3747;SDS011;1889;50.058;8.688;2023-06-26T04:52:24;8.70;;;7.90;;
3747;SDS011;1889;50.058;8.688;2023-06-26T04:54:53;8.33;;;7.53;;
3747;SDS011;1889;50.058;8.688;2023-06-26T04:57:22;8.83;;;7.90;;
3747;SDS011;1889;50.058;8.688;2023-06-26T04:59:51;9.23;;;8.33;;
3747;SDS011;1889;50.058;8.688;2023-06-26T05:02:20;8.50;;;7.80;;
3747;SDS011;1889;50.058;8.688;2023-06-26T05:04:49;9.83;;;8.17;;
3747;SDS011;1889;50.058;8.688;2023-06-26T05:07:18;12.33;;;7.60;;
3747;SDS011;1889;50.058;8.688;2023-06-26T05:09:47;12.03;;;8.20;;
3747;SDS011;1889;50.058;8.688;2023-06-26T05:12:16;9.37;;;8.13;;
3747;SDS011;1889;50.058;8.688;2023-06-26T05:14:45;9.43;;;8.50;;
3747;SDS011;1889;50.058;8.688;2023-06-26T05:17:14;8.53;;;7.70;;
3747;SDS011;1889;50.058;8.688;2023-06-26T05:19:43;10.27;;;7.73;;
3747;SDS011;1889;50.058;8.688;2023-06-26T05:22:14;8.13;;;7.33;;
3747;SDS011;1889;50.058;8.688;2023-06-26T05:24:45;7.80;;;7.00;;
3747;SDS011;1889;50.058;8.688;2023-06-26T05:27:15;10.03;;;7.13;;
3747;SDS011;1889;50.058;8.688;2023-06-26T05:29:46;9.83;;;7.07;;
3747;SDS011;1889;50.058;8.688;2023-06-26T05:32:16;8.20;;;7.40;;
3747;SDS011;1889;50.058;8.688;2023-06-26T05:34:49;9.73;;;8.10;;
3747;SDS011;1889;50.058;8.688;2023-06-26T05:37:22;10.17;;;7.43;;
3747;SDS011;1889;50.058;8.688;2023-06-26T05:39:52;10.33;;;7.60;;
3747;SDS011;1889;50.058;8.688;2023-06-26T05:42:21;9.10;;;8.30;;
3747;SDS011;1889;50.058;8.688;2023-06-26T05:44:50;9.70;;;7.63;;
3747;SDS011;1889;50.058;8.688;2023-06-26T05:47:19;9.03;;;7.23;;
3747;SDS011;1889;50.058;8.688;2023-06-26T05:49:48;8.10;;;7.30;;
3747;SDS011;1889;50.058;8.688;2023-06-26T05:52:17;8.10;;;7.30;;
3747;SDS011;1889;50.058;8.688;2023-06-26T05:54:47;8.70;;;7.87;;
3747;SDS011;1889;50.058;8.688;2023-06-26T05:57:16;8.40;;;7.60;;
3747;SDS011;1889;50.058;8.688;2023-06-26T05:59:46;8.10;;;7.30;;
3747;SDS011;1889;50.058;8.688;2023-06-26T06:02:15;9.83;;;7.57;;
3747;SDS011;1889;50.058;8.688;2023-06-26T06:04:44;8.30;;;7.50;;
3747;SDS011;1889;50.058;8.688;2023-06-26T06:07:13;9.83;;;7.50;;
3747;SDS011;1889;50.058;8.688;2023-06-26T06:09:42;8.33;;;7.53;;
3747;SDS011;1889;50.058;8.688;2023-06-26T06:12:11;8.97;;;8.07;;
3747;SDS011;1889;50.058;8.688;2023-06-26T06:14:40;9.10;;;7.60;;
3747;SDS011;1889;50.058;8.688;2023-06-26T06:17:09;9.37;;;8.10;;
3747;SDS011;1889;50.058;8.688;2023-06-26T06:19:38;8.83;;;7.50;;
3747;SDS011;1889;50.058;8.688;2023-06-26T06:22:07;9.70;;;7.43;;
3747;SDS011;1889;50.058;8.688;2023-06-26T06:24:36;10.53;;;7.63;;
3747;SDS011;1889;50.058;8.688;2023-06-26T06:27:05;7.67;;;6.97;;
3747;SDS011;1889;50.058;8.688;2023-06-26T06:29:34;8.70;;;7.63;;
3747;SDS011;1889;50.058;8.688;2023-06-26T06:32:03;8.83;;;7.17;;
3747;SDS011;1889;50.058;8.688;2023-06-26T06:34:33;8.80;;;7.43;;
3747;SDS011;1889;50.058;8.688;2023-06-26T06:37:02;8.80;;;7.07;;
3747;SDS011;1889;50.058;8.688;2023-06-26T06:39:52;8.53;;;7.00;;
3747;SDS011;1889;50.058;8.688;2023-06-26T06:42:21;8.40;;;7.23;;
3747;SDS011;1889;50.058;8.688;2023-06-26T06:44:50;8.00;;;6.90;;
3747;SDS011;1889;50.058;8.688;2023-06-26T06:47:19;8.83;;;7.20;;
3747;SDS011;1889;50.058;8.688;2023-06-26T06:49:48;7.77;;;7.00;;
3747;SDS011;1889;50.058;8.688;2023-06-26T06:52:17;15.57;;;7.27;;
3747;SDS011;1889;50.058;8.688;2023-06-26T06:54:52;8.30;;;6.77;;
3747;SDS011;1889;50.058;8.688;2023-06-26T06:57:23;7.57;;;6.80;;
3747;SDS011;1889;50.058;8.688;2023-06-26T06:59:53;10.13;;;7.30;;
3747;SDS011;1889;50.058;8.688;2023-06-26T07:02:22;7.93;;;7.07;;
3747;SDS011;1889;50.058;8.688;2023-06-26T07:04:51;8.63;;;6.90;;
3747;SDS011;1889;50.058;8.688;2023-06-26T07:07:20;9.40;;;7.23;;
3747;SDS011;1889;50.058;8.688;2023-06-26T07:09:49;8.83;;;7.13;;
3747;SDS011;1889;50.058;8.688;2023-06-26T07:12:18;8.17;;;7.37;;
3747;SDS011;1889;50.058;8.688;2023-06-26T07:14:47;8.50;;;7.70;;
3747;SDS011;1889;50.058;8.688;2023-06-26T07:17:16;9.53;;;6.87;;
3747;SDS011;1889;50.058;8.688;2023-06-26T07:19:45;7.70;;;6.73;;
3747;SDS011;1889;50.058;8.688;2023-06-26T07:22:15;9.10;;;6.93;;
3747;SDS011;1889;50.058;8.688;2023-06-26T07:24:46;8.73;;;7.40;;
3747;SDS011;1889;50.058;8.688;2023-06-26T07:27:16;7.53;;;6.83;;
3747;SDS011;1889;50.058;8.688;2023-06-26T07:29:46;8.00;;;6.93;;
3747;SDS011;1889;50.058;8.688;2023-06-26T07:32:15;7.67;;;6.97;;
3747;SDS011;1889;50.058;8.688;2023-06-26T07:34:44;7.87;;;6.97;;
3747;SDS011;1889;50.058;8.688;2023-06-26T07:37:13;10.30;;;7.23;;
3747;SDS011;1889;50.058;8.688;2023-06-26T07:39:42;8.67;;;7.87;;
3747;SDS011;1889;50.058;8.688;2023-06-26T07:42:11;11.37;;;7.47;;
3747;SDS011;1889;50.058;8.688;2023-06-26T07:44:41;9.50;;;7.30;;
3747;SDS011;1889;50.058;8.688;2023-06-26T07:47:10;10.10;;;7.27;;
3747;SDS011;1889;50.058;8.688;2023-06-26T07:49:39;7.97;;;7.13;;
3747;SDS011;1889;50.058;8.688;2023-06-26T07:52:08;8.07;;;7.27;;
3747;SDS011;1889;50.058;8.688;2023-06-26T07:54:38;9.40;;;7.13;;
3747;SDS011;1889;50.058;8.688;2023-06-26T07:57:07;7.30;;;6.70;;
3747;SDS011;1889;50.058;8.688;2023-06-26T07:59:36;8.10;;;6.63;;
3747;SDS011;1889;50.058;8.688;2023-06-26T08:02:05;7.90;;;7.10;;
3747;SDS011;1889;50.058;8.688;2023-06-26T08:04:34;8.90;;;6.60;;
3747;SDS011;1889;50.058;8.688;2023-06-26T08:07:03;7.63;;;6.83;;
3747;SDS011;1889;50.058;8.688;2023-06-26T08:09:53;10.57;;;7.53;;
3747;SDS011;1889;50.058;8.688;2023-06-26T08:12:22;7.53;;;6.83;;
3747;SDS011;1889;50.058;8.688;2023-06-26T08:14:51;7.53;;;6.83;;
3747;SDS011;1889;50.058;8.688;2023-06-26T08:17:20;7.97;;;7.17;;
3747;SDS011;1889;50.058;8.688;2023-06-26T08:19:49;8.00;;;7.20;;
3747;SDS011;1889;50.058;8.688;2023-06-26T08:22:18;7.50;;;6.70;;
3747;SDS011;1889;50.058;8.688;2023-06-26T08:24:47;7.40;;;6.70;;
3747;SDS011;1889;50.058;8.688;2023-06-26T08:27:16;8.57;;;6.90;;
3747;SDS011;1889;50.058;8.688;2023-06-26T08:29:45;7.63;;;6.87;;
3747;SDS011;1889;50.058;8.688;2023-06-26T08:32:14;7.30;;;6.60;;
3747;SDS011;1889;50.058;8.688;2023-06-26T08:34:43;6.97;;;6.27;;
3747;SDS011;1889;50.058;8.688;2023-06-26T08:37:12;7.80;;;6.73;;
3747;SDS011;1889;50.058;8.688;2023-06-26T08:39:41;11.13;;;6.70;;
3747;SDS011;1889;50.058;8.688;2023-06-26T08:42:10;7.13;;;6.40;;
3747;SDS011;1889;50.058;8.688;2023-06-26T08:44:39;6.47;;;5.87;;
3747;SDS011;1889;50.058;8.688;2023-06-26T08:47:09;15.90;;;6.50;;
3747;SDS011;1889;50.058;8.688;2023-06-26T08:50:04;8.83;;;6.77;;
3747;SDS011;1889;50.058;8.688;2023-06-26T08:52:23;8.53;;;6.50;;
3747;SDS011;1889;50.058;8.688;2023-06-26T08:54:54;7.73;;;6.43;;
3747;SDS011;1889;50.058;8.688;2023-06-26T08:57:26;7.73;;;5.90;;
3747;SDS011;1889;50.058;8.688;2023-06-26T08:59:58;7.47;;;6.50;;
3747;SDS011;1889;50.058;8.688;2023-06-26T09:02:27;8.57;;;6.60;;
3747;SDS011;1889;50.058;8.688;2023-06-26T09:04:56;7.10;;;6.40;;
3747;SDS011;1889;50.058;8.688;2023-06-26T09:07:25;7.80;;;6.30;;
3747;SDS011;1889;50.058;8.688;2023-06-26T09:09:54;7.73;;;6.70;;
3747;SDS011;1889;50.058;8.688;2023-06-26T09:12:24;6.83;;;6.23;;
3747;SDS011;1889;50.058;8.688;2023-06-26T09:14:57;6.60;;;6.00;;
3747;SDS011;1889;50.058;8.688;2023-06-26T09:17:30;6.90;;;6.17;;
3747;SDS011;1889;50.058;8.688;2023-06-26T09:20:00;6.80;;;6.10;;
3747;SDS011;1889;50.058;8.688;2023-06-26T09:22:33;7.63;;;6.90;;
3747;SDS011;1889;50.058;8.688;2023-06-26T09:25:06;7.23;;;6.53;;
3747;SDS011;1889;50.058;8.688;2023-06-26T09:27:36;7.77;;;6.07;;
3747;SDS011;1889;50.058;8.688;2023-06-26T09:30:07;7.63;;;6.50;;
3747;SDS011;1889;50.058;8.688;2023-06-26T09:32:36;8.67;;;6.57;;
3747;SDS011;1889;50.058;8.688;2023-06-26T09:35:06;7.20;;;6.47;;
3747;SDS011;1889;50.058;8.688;2023-06-26T09:37:35;7.40;;;6.63;;
3747;SDS011;1889;50.058;8.688;2023-06-26T09:40:05;8.17;;;6.17;;
3747;SDS011;1889;50.058;8.688;2023-06-26T09:42:41;7.37;;;6.40;;
3747;SDS011;1889;50.058;8.688;2023-06-26T09:45:17;6.70;;;6.10;;
3747;SDS011;1889;50.058;8.688;2023-06-26T09:47:43;6.53;;;5.83;;
3747;SDS011;1889;50.058;8.688;2023-06-26T09:50:22;6.37;;;5.63;;
3747;SDS011;1889;50.058;8.688;2023-06-26T09:52:53;6.60;;;5.90;;
3747;SDS011;1889;50.058;8.688;2023-06-26T09:55:23;6.53;;;5.93;;
3747;SDS011;1889;50.058;8.688;2023-06-26T09:57:54;5.50;;;5.00;;
3747;SDS011;1889;50.058;8.688;2023-06-26T10:00:24;7.87;;;5.47;;
3747;SDS011;1889;50.058;8.688;2023-06-26T10:02:53;8.20;;;5.70;;
3747;SDS011;1889;50.058;8.688;2023-06-26T10:05:22;6.67;;;6.03;;
3747;SDS011;1889;50.058;8.688;2023-06-26T10:07:52;7.53;;;6.77;;
3747;SDS011;1889;50.058;8.688;2023-06-26T10:10:23;6.97;;;6.27;;
3747;SDS011;1889;50.058;8.688;2023-06-26T10:12:54;7.20;;;5.37;;
3747;SDS011;1889;50.058;8.688;2023-06-26T10:15:25;10.10;;;6.03;;
3747;SDS011;1889;50.058;8.688;2023-06-26T10:17:56;5.70;;;5.20;;
3747;SDS011;1889;50.058;8.688;2023-06-26T10:20:26;8.17;;;5.60;;
3747;SDS011;1889;50.058;8.688;2023-06-26T10:22:55;6.30;;;5.20;;
3747;SDS011;1889;50.058;8.688;2023-06-26T10:25:27;6.20;;;5.57;;
3747;SDS011;1889;50.058;8.688;2023-06-26T10:27:58;6.90;;;5.20;;
3747;SDS011;1889;50.058;8.688;2023-06-26T10:30:31;7.00;;;6.27;;
3747;SDS011;1889;50.058;8.688;2023-06-26T10:33:02;6.53;;;5.50;;
3747;SDS011;1889;50.058;8.688;2023-06-26T10:35:33;5.77;;;5.27;;
3747;SDS011;1889;50.058;8.688;2023-06-26T10:38:03;6.30;;;5.70;;
3747;SDS011;1889;50.058;8.688;2023-06-26T10:40:40;5.87;;;5.37;;
3747;SDS011;1889;50.058;8.688;2023-06-26T10:43:11;6.40;;;5.80;;
3747;SDS011;1889;50.058;8.688;2023-06-26T10:45:44;6.00;;;5.50;;
3747;SDS011;1889;50.058;8.688;2023-06-26T10:48:16;7.40;;;5.47;;
3747;SDS011;1889;50.058;8.688;2023-06-26T10:50:48;7.10;;;5.73;;
3747;SDS011;1889;50.058;8.688;2023-06-26T10:55:58;6.77;;;5.40;;
3747;SDS011;1889;50.058;8.688;2023-06-26T10:58:51;5.17;;;4.77;;
3747;SDS011;1889;50.058;8.688;2023-06-26T11:01:20;5.67;;;5.17;;
3747;SDS011;1889;50.058;8.688;2023-06-26T11:06:33;5.67;;;5.13;;
3747;SDS011;1889;50.058;8.688;2023-06-26T11:14:26;6.97;;;5.03;;
3747;SDS011;1889;50.058;8.688;2023-06-26T11:16:56;5.53;;;4.97;;
3747;SDS011;1889;50.058;8.688;2023-06-26T11:19:25;5.93;;;5.37;;
3747;SDS011;1889;50.058;8.688;2023-06-26T11:21:59;5.63;;;5.13;;
3747;SDS011;1889;50.058;8.688;2023-06-26T11:24:29;7.00;;;5.03;;
3747;SDS011;1889;50.058;8.688;2023-06-26T11:27:00;6.77;;;5.23;;
3747;SDS011;1889;50.058;8.688;2023-06-26T11:29:30;6.77;;;5.93;;
3747;SDS011;1889;50.058;8.688;2023-06-26T11:32:01;5.80;;;5.20;;
3747;SDS011;1889;50.058;8.688;2023-06-26T11:34:32;6.40;;;5.90;;
3747;SDS011;1889;50.058;8.688;2023-06-26T11:37:02;6.03;;;5.43;;
3747;SDS011;1889;50.058;8.688;2023-06-26T11:39:31;7.87;;;5.43;;
3747;SDS011;1889;50.058;8.688;2023-06-26T11:42:00;5.70;;;5.17;;
3747;SDS011;1889;50.058;8.688;2023-06-26T11:44:30;6.67;;;6.00;;
3747;SDS011;1889;50.058;8.688;2023-06-26T11:46:59;6.70;;;5.43;;
3747;SDS011;1889;50.058;8.688;2023-06-26T11:49:28;9.47;;;6.03;;
3747;SDS011;1889;50.058;8.688;2023-06-26T11:51:57;7.90;;;5.97;;
3747;SDS011;1889;50.058;8.688;2023-06-26T11:54:26;6.03;;;5.43;;
3747;SDS011;1889;50.058;8.688;2023-06-26T11:56:56;6.77;;;5.43;;
3747;SDS011;1889;50.058;8.688;2023-06-26T11:59:34;6.63;;;5.80;;
3747;SDS011;1889;50.058;8.688;2023-06-26T12:02:05;5.73;;;5.23;;
3747;SDS011;1889;50.058;8.688;2023-06-26T12:04:36;8.87;;;6.27;;
3747;SDS011;1889;50.058;8.688;2023-06-26T12:07:07;6.40;;;5.80;;
3747;SDS011;1889;50.058;8.688;2023-06-26T12:09:38;5.90;;;5.37;;
3747;SDS011;1889;50.058;8.688;2023-06-26T12:12:10;7.33;;;5.80;;
3747;SDS011;1889;50.058;8.688;2023-06-26T12:14:40;6.50;;;5.53;;
3747;SDS011;1889;50.058;8.688;2023-06-26T12:17:10;6.60;;;6.00;;
3747;SDS011;1889;50.058;8.688;2023-06-26T12:19:44;6.63;;;5.93;;
3747;SDS011;1889;50.058;8.688;2023-06-26T12:22:18;5.47;;;4.97;;
3747;SDS011;1889;50.058;8.688;2023-06-26T12:24:47;6.10;;;5.37;;
3747;SDS011;1889;50.058;8.688;2023-06-26T12:27:17;6.70;;;5.70;;
3747;SDS011;1889;50.058;8.688;2023-06-26T12:29:50;5.83;;;5.17;;
3747;SDS011;1889;50.058;8.688;2023-06-26T12:32:24;6.30;;;5.70;;
3747;SDS011;1889;50.058;8.688;2023-06-26T12:34:53;6.60;;;5.77;;
3747;SDS011;1889;50.058;8.688;2023-06-26T12:37:24;6.87;;;5.40;;
3747;SDS011;1889;50.058;8.688;2023-06-26T12:39:54;9.43;;;5.60;;
3747;SDS011;1889;50.058;8.688;2023-06-26T12:42:26;7.03;;;5.60;;
3747;SDS011;1889;50.058;8.688;2023-06-26T12:44:57;8.90;;;5.57;;
3747;SDS011;1889;50.058;8.688;2023-06-26T12:47:26;6.47;;;5.87;;
3747;SDS011;1889;50.058;8.688;2023-06-26T12:49:58;5.67;;;4.97;;
3747;SDS011;1889;50.058;8.688;2023-06-26T12:52:29;8.03;;;5.47;;
3747;SDS011;1889;50.058;8.688;2023-06-26T12:54:58;6.63;;;5.10;;
3747;SDS011;1889;50.058;8.688;2023-06-26T12:57:27;6.37;;;5.70;;
3747;SDS011;1889;50.058;8.688;2023-06-26T12:59:56;6.20;;;5.60;;
3747;SDS011;1889;50.058;8.688;2023-06-26T13:02:26;7.37;;;5.70;;
3747;SDS011;1889;50.058;8.688;2023-06-26T13:04:55;6.67;;;5.70;;
3747;SDS011;1889;50.058;8.688;2023-06-26T13:07:24;6.90;;;5.83;;
3747;SDS011;1889;50.058;8.688;2023-06-26T13:09:53;7.00;;;6.20;;
3747;SDS011;1889;50.058;8.688;2023-06-26T13:12:22;6.90;;;5.17;;
3747;SDS011;1889;50.058;8.688;2023-06-26T13:14:51;9.87;;;5.47;;
3747;SDS011;1889;50.058;8.688;2023-06-26T13:17:20;5.40;;;4.90;;
3747;SDS011;1889;50.058;8.688;2023-06-26T13:19:50;5.93;;;5.20;;
3747;SDS011;1889;50.058;8.688;2023-06-26T13:22:19;6.07;;;5.43;;
3747;SDS011;1889;50.058;8.688;2023-06-26T13:24:48;6.67;;;4.93;;
3747;SDS011;1889;50.058;8.688;2023-06-26T13:27:17;7.43;;;5.47;;
3747;SDS011;1889;50.058;8.688;2023-06-26T13:29:47;5.33;;;4.83;;
3747;SDS011;1889;50.058;8.688;2023-06-26T13:32:16;6.50;;;5.33;;
3747;SDS011;1889;50.058;8.688;2023-06-26T13:34:45;6.20;;;4.67;;
3747;SDS011;1889;50.058;8.688;2023-06-26T13:37:15;5.30;;;4.80;;
3747;SDS011;1889;50.058;8.688;2023-06-26T13:39:44;7.03;;;4.90;;
3747;SDS011;1889;50.058;8.688;2023-06-26T13:42:15;7.17;;;4.93;;
3747;SDS011;1889;50.058;8.688;2023-06-26T13:44:46;7.20;;;5.00;;
3747;SDS011;1889;50.058;8.688;2023-06-26T13:47:15;10.10;;;4.73;;
3747;SDS011;1889;50.058;8.688;2023-06-26T13:49:44;5.57;;;4.73;;
3747;SDS011;1889;50.058;8.688;2023-06-26T13:52:13;5.00;;;4.50;;
3747;SDS011;1889;50.058;8.688;2023-06-26T13:54:42;4.87;;;4.27;;
3747;SDS011;1889;50.058;8.688;2023-06-26T13:57:11;5.27;;;4.57;;
3747;SDS011;1889;50.058;8.688;2023-06-26T13:59:40;4.87;;;4.30;;
3747;SDS011;1889;50.058;8.688;2023-06-26T14:02:09;4.63;;;4.20;;
3747;SDS011;1889;50.058;8.688;2023-06-26T14:04:38;8.40;;;4.37;;
3747;SDS011;1889;50.058;8.688;2023-06-26T14:07:09;5.87;;;4.17;;
3747;SDS011;1889;50.058;8.688;2023-06-26T14:09:38;5.97;;;4.10;;
3747;SDS011;1889;50.058;8.688;2023-06-26T14:12:09;4.63;;;3.63;;
3747;SDS011;1889;50.058;8.688;2023-06-26T14:14:56;5.27;;;3.47;;
3747;SDS011;1889;50.058;8.688;2023-06-26T14:17:26;6.47;;;3.80;;
3747;SDS011;1889;50.058;8.688;2023-06-26T14:19:55;6.80;;;3.27;;
3747;SDS011;1889;50.058;8.688;2023-06-26T14:22:24;5.20;;;3.13;;
3747;SDS011;1889;50.058;8.688;2023-06-26T14:24:53;4.17;;;3.50;;
3747;SDS011;1889;50.058;8.688;2023-06-26T14:27:22;6.40;;;3.77;;
3747;SDS011;1889;50.058;8.688;2023-06-26T14:29:51;4.67;;;3.57;;
3747;SDS011;1889;50.058;8.688;2023-06-26T14:32:20;5.77;;;3.37;;
3747;SDS011;1889;50.058;8.688;2023-06-26T14:34:49;3.80;;;3.40;;
3747;SDS011;1889;50.058;8.688;2023-06-26T14:37:18;3.60;;;3.23;;
3747;SDS011;1889;50.058;8.688;2023-06-26T14:39:47;5.57;;;3.67;;
3747;SDS011;1889;50.058;8.688;2023-06-26T14:42:16;6.43;;;3.50;;
3747;SDS011;1889;50.058;8.688;2023-06-26T14:44:45;4.37;;;3.27;;
3747;SDS011;1889;50.058;8.688;2023-06-26T14:47:16;5.47;;;3.23;;
3747;SDS011;1889;50.058;8.688;2023-06-26T14:49:45;5.80;;;3.23;;
3747;SDS011;1889;50.058;8.688;2023-06-26T14:52:14;7.97;;;2.33;;
3747;SDS011;1889;50.058;8.688;2023-06-26T14:54:44;11.50;;;3.23;;
3747;SDS011;1889;50.058;8.688;2023-06-26T14:57:13;2.90;;;2.47;;
3747;SDS011;1889;50.058;8.688;2023-06-26T14:59:42;5.70;;;2.83;;
3747;SDS011;1889;50.058;8.688;2023-06-26T15:02:11;3.93;;;2.73;;
3747;SDS011;1889;50.058;8.688;2023-06-26T15:04:40;4.13;;;2.40;;
3747;SDS011;1889;50.058;8.688;2023-06-26T15:07:09;6.53;;;2.83;;
3747;SDS011;1889;50.058;8.688;2023-06-26T15:09:38;5.80;;;2.60;;
3747;SDS011;1889;50.058;8.688;2023-06-26T15:12:07;5.83;;;2.90;;
3747;SDS011;1889;50.058;8.688;2023-06-26T15:14:36;5.80;;;2.40;;
3747;SDS011;1889;50.058;8.688;2023-06-26T15:17:05;3.10;;;2.27;;
3747;SDS011;1889;50.058;8.688;2023-06-26T15:19:34;6.40;;;2.60;;
3747;SDS011;1889;50.058;8.688;2023-06-26T15:22:04;4.47;;;2.57;;
3747;SDS011;1889;50.058;8.688;2023-06-26T15:24:33;6.00;;;2.33;;
3747;SDS011;1889;50.058;8.688;2023-06-26T15:27:02;5.07;;;2.73;;
3747;SDS011;1889;50.058;8.688;2023-06-26T15:29:31;5.83;;;2.00;;
3747;SDS011;1889;50.058;8.688;2023-06-26T15:32:00;4.83;;;1.90;;
3747;SDS011;1889;50.058;8.688;2023-06-26T15:34:30;3.33;;;2.40;;
3747;SDS011;1889;50.058;8.688;2023-06-26T15:36:59;6.00;;;2.10;;
3747;SDS011;1889;50.058;8.688;2023-06-26T15:39:28;3.83;;;2.07;;
3747;SDS011;1889;50.058;8.688;2023-06-26T15:41:57;5.07;;;2.10;;
3747;SDS011;1889;50.058;8.688;2023-06-26T15:44:26;3.57;;;2.00;;
3747;SDS011;1889;50.058;8.688;2023-06-26T15:46:55;4.20;;;2.10;;